Time;durP1;ratioP1;P1;durP2;ratioP2;P2;SDS_P1;SDS_P2;PMS_P1;PMS_P2;Temp;Humidity;BMP_temperature;BMP_pressure;BME280_temperature;BME280_humidity;BME280_pressure;Samples;Min_cycle;Max_cycle;Signal;HPM_P1;HPM_P2
2022/06/08 00:01:38;;;;;;;5.88;2.88;;;15.50;99.90;;;;;;5049473;28;20385;-62
2022/06/08 00:04:05;;;;;;;6.30;2.95;;;15.50;99.90;;;;;;5048309;28;20401;-60
2022/06/08 00:06:31;;;;;;;7.32;2.90;;;15.50;99.90;;;;;;5048401;28;20477;-60
2022/06/08 00:08:57;;;;;;;6.13;3.40;;;15.50;99.90;;;;;;5048717;28;20493;-62
2022/06/08 00:11:23;;;;;;;7.20;2.90;;;15.50;99.90;;;;;;5047826;28;20435;-63
2022/06/08 00:13:50;;;;;;;6.00;3.08;;;15.50;99.90;;;;;;5048682;28;20875;-62
2022/06/08 00:16:16;;;;;;;7.50;3.10;;;15.40;99.90;;;;;;5048094;28;20404;-63
2022/06/08 00:18:44;;;;;;;6.03;3.30;;;15.40;99.90;;;;;;5048668;28;20432;-63
2022/06/08 00:21:11;;;;;;;7.38;3.20;;;15.30;99.90;;;;;;5048350;28;20378;-63
2022/06/08 00:23:37;;;;;;;6.75;3.10;;;15.20;99.90;;;;;;5048464;28;20410;-63
2022/06/08 00:26:04;;;;;;;7.20;3.90;;;15.20;99.90;;;;;;5048244;28;20397;-61
2022/06/08 00:28:31;;;;;;;6.38;3.10;;;15.20;99.90;;;;;;5047681;28;20423;-61
2022/06/08 00:30:57;;;;;;;7.10;3.47;;;15.20;99.90;;;;;;5048378;28;20482;-61
2022/06/08 00:33:23;;;;;;;7.20;3.60;;;15.10;99.90;;;;;;5047659;28;20389;-63
2022/06/08 00:35:49;;;;;;;7.80;3.58;;;15.20;99.90;;;;;;5049054;28;20381;-63
2022/06/08 00:38:14;;;;;;;6.30;3.10;;;15.20;99.90;;;;;;5048949;28;20401;-62
2022/06/08 00:40:55;;;;;;;8.13;3.90;;;15.10;99.90;;;;;;5052593;28;20394;-62
2022/06/08 00:43:21;;;;;;;7.75;3.70;;;15.10;99.90;;;;;;5051537;28;20447;-60
2022/06/08 00:45:47;;;;;;;9.40;3.70;;;15.00;99.90;;;;;;5051986;28;20429;-60
2022/06/08 00:48:14;;;;;;;8.30;3.60;;;15.00;99.90;;;;;;5051002;28;20929;-60
2022/06/08 00:50:48;;;;;;;6.53;3.85;;;15.10;99.90;;;;;;5052261;28;20405;-62
2022/06/08 00:53:19;;;;;;;8.20;4.05;;;15.10;99.90;;;;;;5051565;28;20443;-61
2022/06/08 00:55:45;;;;;;;8.60;3.30;;;15.00;99.90;;;;;;5052205;28;20724;-62
2022/06/08 00:58:18;;;;;;;8.07;3.53;;;15.00;99.90;;;;;;5051093;28;20403;-61
2022/06/08 01:00:45;;;;;;;6.50;3.80;;;15.00;99.90;;;;;;5052201;28;20389;-62
2022/06/08 01:03:14;;;;;;;7.97;3.83;;;15.00;99.90;;;;;;5051240;28;20432;-61
2022/06/08 01:05:44;;;;;;;8.40;3.30;;;14.90;99.90;;;;;;5051851;28;20404;-62
2022/06/08 01:08:38;;;;;;;7.50;3.70;;;14.90;99.90;;;;;;5051149;28;20381;-57
2022/06/08 01:11:09;;;;;;;7.82;3.60;;;14.80;99.90;;;;;;5051879;28;20397;-62
2022/06/08 01:13:37;;;;;;;8.18;3.50;;;14.80;99.90;;;;;;5051782;28;20435;-62
2022/06/08 01:16:04;;;;;;;8.50;3.50;;;14.80;99.90;;;;;;5051440;28;20416;-62
2022/06/08 01:18:31;;;;;;;8.47;3.60;;;14.80;99.90;;;;;;5050625;28;20415;-62
2022/06/08 01:21:15;;;;;;;6.90;3.85;;;14.70;99.90;;;;;;5051290;28;20398;-60
2022/06/08 01:23:41;;;;;;;6.78;3.40;;;14.70;99.90;;;;;;5051096;28;20562;-62
2022/06/08 01:26:39;;;;;;;7.88;3.30;;;14.70;99.90;;;;;;5051402;28;20480;-57
2022/06/08 01:29:26;;;;;;;7.23;3.40;;;14.70;99.90;;;;;;5050948;28;20511;-63
2022/06/08 01:32:22;;;;;;;7.68;3.60;;;14.70;99.90;;;;;;5051425;28;20472;-62
2022/06/08 01:35:12;;;;;;;6.85;3.00;;;14.60;99.90;;;;;;5051212;28;20454;-62
2022/06/08 01:37:54;;;;;;;6.93;3.20;;;14.50;99.90;;;;;;5033533;28;20454;-62
2022/06/08 01:40:31;;;;;;;6.88;3.50;;;14.50;99.90;;;;;;5050558;28;20393;-63
2022/06/08 01:43:27;;;;;;;8.55;3.30;;;14.60;99.90;;;;;;5051443;28;20388;-62
2022/06/08 01:46:05;;;;;;;6.20;3.28;;;14.60;99.90;;;;;;5036191;28;20397;-62
2022/06/08 01:48:40;;;;;;;7.60;3.40;;;14.50;99.90;;;;;;5049735;28;20397;-63
2022/06/08 01:51:20;;;;;;;6.90;3.30;;;14.50;99.90;;;;;;5050792;28;20402;-61
2022/06/08 01:53:55;;;;;;;7.10;3.40;;;14.50;99.90;;;;;;5051120;28;20409;-61
2022/06/08 01:56:43;;;;;;;8.43;3.40;;;14.40;99.90;;;;;;5050539;28;20451;-60
2022/06/08 01:59:19;;;;;;;6.95;3.25;;;14.30;99.90;;;;;;5050278;28;20425;-58
2022/06/08 02:02:24;;;;;;;6.00;3.30;;;14.30;99.90;;;;;;5050966;28;20397;-63
2022/06/08 02:05:10;;;;;;;7.30;3.28;;;14.20;99.90;;;;;;5049477;28;20417;-60
2022/06/08 02:07:48;;;;;;;6.30;3.13;;;14.20;99.90;;;;;;5050536;28;20397;-60
2022/06/08 02:10:17;;;;;;;10.88;3.78;;;14.10;99.90;;;;;;5049203;28;20417;-60
2022/06/08 02:12:48;;;;;;;7.07;3.40;;;14.10;99.90;;;;;;5050543;28;20527;-60
2022/06/08 02:15:20;;;;;;;6.90;3.60;;;14.10;99.90;;;;;;5031992;28;20393;-60
2022/06/08 02:17:52;;;;;;;9.07;3.55;;;14.00;99.90;;;;;;5033652;28;20389;-61
2022/06/08 02:20:33;;;;;;;7.65;3.55;;;14.00;99.90;;;;;;5049205;28;20401;-60
2022/06/08 02:23:13;;;;;;;7.70;3.40;;;14.10;99.90;;;;;;5050087;28;20493;-60
2022/06/08 02:25:46;;;;;;;6.82;3.10;;;14.10;99.90;;;;;;5032028;28;20871;-59
2022/06/08 02:28:22;;;;;;;6.75;3.30;;;14.20;99.90;;;;;;5049068;28;20499;-58
2022/06/08 02:30:53;;;;;;;6.90;3.40;;;14.20;99.90;;;;;;5050716;28;20446;-60
2022/06/08 02:36:28;;;;;;;7.75;3.75;;;14.10;99.90;;;;;;5049035;28;20487;-59
2022/06/08 02:39:08;;;;;;;7.55;3.50;;;14.00;99.90;;;;;;5049633;28;20488;-60
2022/06/08 02:41:35;;;;;;;6.63;3.70;;;14.00;99.90;;;;;;5049081;28;20393;-60
2022/06/08 02:44:06;;;;;;;7.47;3.45;;;14.00;99.90;;;;;;5049706;28;20401;-59
2022/06/08 02:47:00;;;;;;;6.65;3.70;;;14.00;99.90;;;;;;5048577;28;20928;-61
2022/06/08 02:49:25;;;;;;;8.80;3.70;;;13.90;99.90;;;;;;5048639;28;20820;-59
2022/06/08 02:51:56;;;;;;;9.68;3.80;;;13.90;99.90;;;;;;5049534;28;20449;-61
2022/06/08 02:54:25;;;;;;;8.30;3.70;;;14.00;99.90;;;;;;5049203;28;20431;-61
2022/06/08 02:56:56;;;;;;;8.23;3.70;;;14.00;99.90;;;;;;5049707;28;20418;-63
2022/06/08 02:59:43;;;;;;;7.50;3.50;;;14.10;99.90;;;;;;5049461;28;20525;-62
2022/06/08 03:02:30;;;;;;;8.80;3.60;;;14.20;99.90;;;;;;5048493;28;20450;-57
2022/06/08 03:05:03;;;;;;;8.40;3.47;;;14.10;99.90;;;;;;5049454;28;20445;-59
2022/06/08 03:07:37;;;;;;;7.25;3.55;;;14.10;99.90;;;;;;5048753;28;20401;-61
2022/06/08 03:10:08;;;;;;;7.28;3.25;;;14.20;99.90;;;;;;5041867;28;20887;-60
2022/06/08 03:12:46;;;;;;;9.10;3.17;;;14.10;99.90;;;;;;5048572;28;20953;-60
2022/06/08 03:15:15;;;;;;;7.77;3.13;;;14.20;99.90;;;;;;5049268;28;20431;-55
2022/06/08 03:17:43;;;;;;;9.52;3.50;;;14.30;99.90;;;;;;5048737;28;20393;-61
2022/06/08 03:20:10;;;;;;;7.00;3.00;;;14.30;99.90;;;;;;5049245;28;20789;-55
2022/06/08 03:22:36;;;;;;;6.88;3.13;;;14.30;99.90;;;;;;5048715;28;20467;-60
2022/06/08 03:25:03;;;;;;;7.13;2.90;;;14.30;79.40;;;;;;5049224;28;20477;-60
2022/06/08 03:27:28;;;;;;;7.38;3.20;;;14.30;77.10;;;;;;5048267;28;20400;-61
2022/06/08 03:29:54;;;;;;;7.60;3.10;;;14.30;74.10;;;;;;5049400;28;20491;-60
2022/06/08 03:32:20;;;;;;;8.30;3.28;;;14.40;63.80;;;;;;5048709;28;20428;-61
2022/06/08 03:34:45;;;;;;;9.20;3.60;;;14.40;59.40;;;;;;5049189;28;20489;-61
2022/06/08 03:37:11;;;;;;;8.40;3.07;;;14.40;19.10;;;;;;5048680;28;20860;-56
2022/06/08 03:39:37;;;;;;;7.00;2.83;;;14.50;23.80;;;;;;5048999;28;20468;-61
2022/06/08 03:42:03;;;;;;;9.80;3.30;;;14.50;10.80;;;;;;5049016;28;20432;-61
2022/06/08 03:44:28;;;;;;;7.87;2.80;;;14.50;1.00;;;;;;5048297;28;20385;-60
2022/06/08 03:46:59;;;;;;;6.53;3.08;;;14.50;8.60;;;;;;5049283;28;20942;-60
2022/06/08 03:49:26;;;;;;;7.85;3.33;;;14.60;1.00;;;;;;5048416;28;20401;-59
2022/06/08 03:51:54;;;;;;;7.17;2.83;;;14.70;1.00;;;;;;5048675;28;20405;-59
2022/06/08 03:54:24;;;;;;;8.10;2.80;;;14.80;1.00;;;;;;5048113;28;20401;-58
2022/06/08 03:56:54;;;;;;;7.90;3.30;;;15.00;1.00;;;;;;5048836;28;20535;-60
2022/06/08 03:59:20;;;;;;;6.05;2.70;;;15.00;1.00;;;;;;5028753;28;20388;-60
2022/06/08 04:01:46;;;;;;;6.90;3.00;;;15.00;1.00;;;;;;5040814;28;20405;-60
2022/06/08 04:04:11;;;;;;;7.78;3.33;;;15.00;1.00;;;;;;5048545;28;20404;-56
2022/06/08 04:06:38;;;;;;;7.00;3.30;;;15.10;1.00;;;;;;5048546;28;20413;-60
2022/06/08 04:09:04;;;;;;;8.50;3.00;;;15.10;1.00;;;;;;5048734;28;20416;-60
2022/06/08 04:11:30;;;;;;;6.90;3.00;;;15.10;1.00;;;;;;5047704;28;20401;-60
2022/06/08 04:13:58;;;;;;;8.13;3.30;;;15.30;1.00;;;;;;5051126;28;20409;-60
2022/06/08 04:16:23;;;;;;;6.57;2.80;;;15.40;1.00;;;;;;5051690;28;20463;-60
2022/06/08 04:18:49;;;;;;;7.43;3.00;;;15.60;1.00;;;;;;5053112;28;20381;-60
2022/06/08 04:21:15;;;;;;;7.05;2.90;;;15.60;1.00;;;;;;5051686;28;20875;-56
2022/06/08 04:23:43;;;;;;;7.70;3.30;;;15.70;1.00;;;;;;5052780;28;20405;-61
2022/06/08 04:26:09;;;;;;;9.95;3.33;;;15.80;1.00;;;;;;5052596;28;20437;-60
2022/06/08 04:28:35;;;;;;;8.35;3.20;;;15.70;1.00;;;;;;5051772;28;20392;-61
2022/06/08 04:31:02;;;;;;;11.15;3.90;;;15.90;1.00;;;;;;5052546;28;20821;-61
2022/06/08 04:33:28;;;;;;;9.20;3.40;;;16.10;1.00;;;;;;5051502;28;20508;-62
2022/06/08 04:35:53;;;;;;;7.53;3.30;;;16.20;1.00;;;;;;5052084;28;20401;-57
2022/06/08 04:38:19;;;;;;;11.30;3.70;;;16.40;1.00;;;;;;5051554;28;20401;-61
2022/06/08 04:40:46;;;;;;;13.20;3.45;;;16.50;1.00;;;;;;5052604;28;20381;-62
2022/06/08 04:43:13;;;;;;;8.52;3.38;;;16.60;99.90;;;;;;5051616;28;20395;-57
2022/06/08 04:45:39;;;;;;;6.88;3.30;;;16.70;99.90;;;;;;5051841;28;20425;-61
2022/06/08 04:48:06;;;;;;;8.00;3.40;;;16.70;99.90;;;;;;5052527;28;20388;-62
2022/06/08 04:50:31;;;;;;;8.93;3.17;;;16.70;99.90;;;;;;5051084;28;20704;-61
2022/06/08 04:52:59;;;;;;;8.90;3.00;;;16.70;99.90;;;;;;5052070;28;20873;-61
2022/06/08 04:55:24;;;;;;;8.10;3.33;;;16.80;99.90;;;;;;5050694;28;20409;-62
2022/06/08 04:57:50;;;;;;;7.85;3.30;;;16.90;47.10;;;;;;5051850;28;20392;-61
2022/06/08 05:00:18;;;;;;;6.70;3.10;;;17.00;1.00;;;;;;5051336;28;20451;-60
2022/06/08 05:02:47;;;;;;;6.20;2.80;;;17.30;1.00;;;;;;5032629;28;20401;-60
2022/06/08 05:05:15;;;;;;;8.37;3.10;;;17.60;99.90;;;;;;5031235;28;20405;-56
2022/06/08 05:07:41;;;;;;;6.90;2.80;;;18.00;99.90;;;;;;5050747;28;20408;-61
2022/06/08 05:10:08;;;;;;;8.70;2.93;;;18.30;1.00;;;;;;5029766;28;20411;-60
2022/06/08 05:12:35;;;;;;;6.40;3.00;;;18.80;1.00;;;;;;5049426;28;20484;-60
2022/06/08 05:15:01;;;;;;;6.47;2.42;;;19.60;1.00;;;;;;5051746;28;20390;-61
2022/06/08 05:17:27;;;;;;;6.57;2.50;;;20.20;99.90;;;;;;5050737;28;20398;-61
2022/06/08 05:19:52;;;;;;;9.20;2.70;;;21.20;1.00;;;;;;5051186;28;20523;-62
2022/06/08 05:22:18;;;;;;;9.10;2.20;;;21.90;1.00;;;;;;5050679;28;20401;-61
2022/06/08 05:24:43;;;;;;;8.43;2.20;;;22.40;1.00;;;;;;5032238;28;20913;-61
2022/06/08 05:27:09;;;;;;;8.20;2.37;;;22.60;1.00;;;;;;5049986;28;20397;-59
2022/06/08 05:29:35;;;;;;;9.37;2.50;;;22.70;1.00;;;;;;5051829;28;20423;-62
2022/06/08 05:32:00;;;;;;;6.97;2.40;;;23.50;1.00;;;;;;5057353;28;20501;-62
2022/06/08 05:34:26;;;;;;;6.67;2.60;;;24.80;99.90;;;;;;5054018;28;20408;-62
2022/06/08 05:36:54;;;;;;;7.60;2.87;;;26.00;99.90;;;;;;5046714;28;20388;-61
2022/06/08 05:39:20;;;;;;;7.15;3.40;;;26.20;99.90;;;;;;5050696;28;20431;-61
2022/06/08 05:41:46;;;;;;;7.78;3.50;;;26.20;99.90;;;;;;5048605;28;20904;-61
2022/06/08 05:44:11;;;;;;;8.30;4.40;;;26.80;99.90;;;;;;5045946;28;20397;-59
2022/06/08 05:46:37;;;;;;;7.78;5.40;;;26.70;99.90;;;;;;5062020;28;20422;-61
2022/06/08 05:49:03;;;;;;;8.70;4.80;;;27.30;99.90;;;;;;5055566;28;20502;-62
2022/06/08 05:51:28;;;;;;;7.10;4.30;;;26.50;99.90;;;;;;5065236;28;20444;-58
2022/06/08 05:53:54;;;;;;;8.85;4.18;;;26.50;99.90;;;;;;5059991;28;20401;-58
2022/06/08 05:56:20;;;;;;;6.70;3.97;;;26.70;99.90;;;;;;5059982;28;20408;-58
2022/06/08 05:58:46;;;;;;;9.70;4.70;;;26.10;99.90;;;;;;5061471;28;20405;-58
2022/06/08 06:01:11;;;;;;;7.55;3.10;;;25.20;99.90;;;;;;5048582;28;20472;-58
2022/06/08 06:03:37;;;;;;;8.80;2.80;;;24.30;99.90;;;;;;5044634;28;20739;-58
2022/06/08 06:06:02;;;;;;;8.35;3.00;;;24.00;99.90;;;;;;5044632;28;20485;-59
2022/06/08 06:08:28;;;;;;;6.90;2.15;;;23.10;99.90;;;;;;5047805;28;20412;-60
2022/06/08 06:10:54;;;;;;;6.53;2.80;;;22.50;99.90;;;;;;5064795;28;20900;-59
2022/06/08 06:13:20;;;;;;;6.90;2.20;;;21.80;99.90;;;;;;5049499;28;20971;-60
2022/06/08 06:15:46;;;;;;;7.38;2.20;;;21.20;99.90;;;;;;5032691;28;20809;-57
2022/06/08 06:18:12;;;;;;;6.70;1.90;;;21.00;99.90;;;;;;5049870;28;20394;-57
2022/06/08 06:20:39;;;;;;;6.72;1.95;;;20.90;99.90;;;;;;5029265;28;20913;-58
2022/06/08 06:23:05;;;;;;;6.80;2.13;;;21.40;99.90;;;;;;5049391;28;20494;-64
2022/06/08 06:25:30;;;;;;;7.20;1.90;;;21.70;99.90;;;;;;5049229;28;20486;-63
2022/06/08 06:27:56;;;;;;;8.20;2.20;;;22.50;99.90;;;;;;5049474;28;20851;-61
2022/06/08 06:30:22;;;;;;;8.15;2.10;;;22.80;99.90;;;;;;5048154;28;20727;-58
2022/06/08 06:32:48;;;;;;;7.20;1.97;;;22.80;99.90;;;;;;5048487;28;20462;-58
2022/06/08 06:35:25;;;;;;;7.47;2.00;;;22.70;99.90;;;;;;5051104;28;21385;-60
2022/06/08 06:37:52;;;;;;;6.85;2.10;;;22.80;99.90;;;;;;5050322;28;20389;-57
2022/06/08 06:40:18;;;;;;;6.00;1.90;;;23.90;99.90;;;;;;5059126;28;20401;-58
2022/06/08 06:42:44;;;;;;;10.20;2.60;;;24.00;99.90;;;;;;5051546;28;20470;-59
2022/06/08 06:45:11;;;;;;;9.20;1.80;;;23.40;99.90;;;;;;5049078;28;20480;-57
2022/06/08 06:47:37;;;;;;;7.72;2.17;;;23.20;99.90;;;;;;5049037;28;20392;-57
2022/06/08 06:50:06;;;;;;;7.05;2.30;;;23.50;99.90;;;;;;5049822;28;20412;-57
2022/06/08 06:52:32;;;;;;;9.23;2.00;;;23.50;99.90;;;;;;5049463;28;20401;-58
2022/06/08 06:54:57;;;;;;;9.48;2.30;;;24.00;99.90;;;;;;5049996;28;20382;-58
2022/06/08 06:57:23;;;;;;;7.07;2.30;;;24.30;99.90;;;;;;5049192;28;20904;-58
2022/06/08 06:59:49;;;;;;;6.30;2.00;;;24.90;99.90;;;;;;5032289;28;20822;-58
2022/06/08 07:02:18;;;;;;;7.30;1.90;;;25.40;99.90;;;;;;5049311;28;20382;-58
2022/06/08 07:04:44;;;;;;;7.10;2.13;;;25.40;99.90;;;;;;5049674;28;20450;-58
2022/06/08 07:07:11;;;;;;;6.78;1.95;;;25.40;99.90;;;;;;5049603;28;20385;-58
2022/06/08 07:09:37;;;;;;;8.10;2.40;;;25.90;99.90;;;;;;5048549;28;20416;-58
2022/06/08 07:12:04;;;;;;;10.30;3.15;;;26.80;99.90;;;;;;5048947;28;20480;-58
2022/06/08 07:14:31;;;;;;;8.60;5.30;;;27.40;99.90;;;;;;5048837;28;20401;-58
2022/06/08 07:16:56;;;;;;;10.00;4.03;;;27.30;99.90;;;;;;5049308;28;20944;-58
2022/06/08 07:19:22;;;;;;;7.50;4.30;;;27.70;99.90;;;;;;5048956;28;20452;-58
2022/06/08 07:21:48;;;;;;;7.40;4.40;;;27.90;99.90;;;;;;5048914;28;20420;-58
2022/06/08 07:24:21;;;;;;;6.13;3.65;;;27.70;99.90;;;;;;5029284;28;20415;-58
2022/06/08 07:26:47;;;;;;;7.40;4.15;;;27.90;99.90;;;;;;5046351;28;20885;-59
2022/06/08 07:29:13;;;;;;;11.50;6.60;;;28.50;99.90;;;;;;5049515;28;20459;-58
2022/06/08 07:31:39;;;;;;;7.88;4.50;;;29.30;99.90;;;;;;5048271;28;20755;-64
2022/06/08 07:34:05;;;;;;;9.18;5.25;;;29.60;99.90;;;;;;5048322;28;20400;-65
2022/06/08 07:36:31;;;;;;;10.35;4.50;;;28.70;99.90;;;;;;5048555;28;20378;-64
2022/06/08 07:38:56;;;;;;;7.43;3.40;;;28.30;99.90;;;;;;5049403;28;20415;-64
2022/06/08 07:41:23;;;;;;;7.05;3.40;;;27.70;99.90;;;;;;5048374;28;20882;-64
2022/06/08 07:43:48;;;;;;;8.60;4.68;;;28.00;99.90;;;;;;5049532;28;20411;-66
2022/06/08 07:46:15;;;;;;;8.20;4.00;;;28.30;99.90;;;;;;5049155;28;20378;-65
2022/06/08 07:51:25;;;;;;;8.30;3.80;;;28.70;99.90;;;;;;5052338;28;20376;-64
2022/06/08 07:53:50;;;;;;;9.33;4.53;;;27.80;99.90;;;;;;5053580;28;20389;-64
2022/06/08 07:56:16;;;;;;;9.30;3.67;;;26.80;99.90;;;;;;5052668;28;20385;-58
2022/06/08 07:58:42;;;;;;;7.23;3.73;;;27.60;99.90;;;;;;5053084;28;20385;-65
2022/06/08 08:01:08;;;;;;;7.57;3.80;;;27.20;99.90;;;;;;5053388;28;20802;-64
2022/06/08 08:03:34;;;;;;;7.95;3.63;;;26.70;99.90;;;;;;5052561;28;20389;-65
2022/06/08 08:06:00;;;;;;;7.97;3.13;;;26.90;99.90;;;;;;5053308;28;20389;-65
2022/06/08 08:08:25;;;;;;;9.80;3.95;;;27.10;99.90;;;;;;5052157;28;20377;-65
2022/06/08 08:10:52;;;;;;;7.97;3.70;;;26.70;99.90;;;;;;5052792;28;20964;-64
2022/06/08 08:13:18;;;;;;;8.85;4.05;;;27.30;99.90;;;;;;5052313;28;20385;-56
2022/06/08 08:15:44;;;;;;;7.75;3.80;;;26.80;99.90;;;;;;5052841;28;20715;-65
2022/06/08 08:18:11;;;;;;;8.48;3.85;;;28.00;99.90;;;;;;5052319;28;20843;-65
2022/06/08 08:20:37;;;;;;;7.60;4.40;;;29.50;99.90;;;;;;5051712;28;20389;-62
2022/06/08 08:23:03;;;;;;;7.35;4.28;;;29.90;99.90;;;;;;5052289;28;20405;-64
2022/06/08 08:25:30;;;;;;;6.50;1.70;;;30.70;99.90;;;;;;5052052;28;20465;-65
2022/06/08 08:27:57;;;;;;;9.65;4.53;;;31.20;99.90;;;;;;5052386;28;20436;-65
2022/06/08 08:30:26;;;;;;;8.15;4.47;;;31.40;99.90;;;;;;5052067;28;20513;-65
2022/06/08 08:32:52;;;;;;;8.95;4.53;;;31.60;99.90;;;;;;5052698;28;20385;-65
2022/06/08 08:35:21;;;;;;;7.65;4.30;;;30.70;99.90;;;;;;5051943;28;20385;-58
2022/06/08 08:37:47;;;;;;;7.60;4.80;;;31.60;99.90;;;;;;5052319;28;20873;-65
2022/06/08 08:40:43;;;;;;;8.93;8.02;;;31.90;99.90;;;;;;5053215;28;20534;-65
2022/06/08 08:43:12;;;;;;;7.78;5.70;;;32.60;99.90;;;;;;5052498;28;20386;-65
2022/06/08 08:45:50;;;;;;;6.78;3.05;;;33.00;99.90;;;;;;5051621;28;20373;-65
2022/06/08 08:48:25;;;;;;;5.90;1.05;;;32.70;99.90;;;;;;5052360;28;20386;-66
2022/06/08 08:51:31;;;;;;;5.18;0.90;;;33.10;99.90;;;;;;5052492;28;20485;-65
2022/06/08 08:54:29;;;;;;;10.02;4.85;;;33.50;99.90;;;;;;4990093;28;20406;-65
2022/06/08 08:57:12;;;;;;;7.60;4.53;;;31.30;99.90;;;;;;5052177;28;20382;-65
2022/06/08 08:59:42;;;;;;;9.55;5.68;;;30.70;99.90;;;;;;5050562;28;20375;-65
2022/06/08 09:03:14;;;;;;;9.07;4.90;;;29.70;1.00;;;;;;5051884;28;20386;-65
2022/06/08 09:05:01;;;;;;;7.20;5.20;;;28.80;1.00;;;;;;5051697;28;20444;-65
2022/06/08 09:07:29;;;;;;;7.88;5.05;;;27.20;1.00;;;;;;5051279;28;20821;-66
2022/06/08 09:09:55;;;;;;;6.57;4.77;;;26.90;1.00;;;;;;5051715;28;20405;-66
2022/06/08 09:12:21;;;;;;;9.40;5.00;;;26.90;1.00;;;;;;5051020;28;20390;-62
2022/06/08 09:14:58;;;;;;;8.10;4.65;;;27.90;1.00;;;;;;5051814;28;20393;-65
2022/06/08 09:17:40;;;;;;;7.15;4.65;;;27.90;1.00;;;;;;5051034;28;20439;-64
2022/06/08 09:20:32;;;;;;;7.90;4.77;;;26.70;1.00;;;;;;5051821;28;20435;-65
2022/06/08 09:23:19;;;;;;;8.00;4.90;;;27.10;1.00;;;;;;5051421;28;20769;-65
2022/06/08 09:25:45;;;;;;;7.20;5.05;;;28.30;1.00;;;;;;5051444;28;20922;-66
2022/06/08 09:28:26;;;;;;;8.25;4.60;;;30.00;1.00;;;;;;5051559;28;20373;-66
2022/06/08 09:30:53;;;;;;;9.60;4.50;;;30.20;1.00;;;;;;5051032;28;20492;-65
2022/06/08 09:33:26;;;;;;;9.40;5.23;;;29.50;99.90;;;;;;5033382;28;20487;-58
2022/06/08 09:36:02;;;;;;;8.65;4.80;;;28.70;99.90;;;;;;5051469;28;20389;-66
2022/06/08 09:38:32;;;;;;;7.10;4.60;;;28.50;99.90;;;;;;5050711;28;20386;-66
2022/06/08 09:41:16;;;;;;;8.77;5.00;;;28.50;99.90;;;;;;5051190;28;20859;-65
2022/06/08 09:44:01;;;;;;;8.85;4.03;;;29.10;99.90;;;;;;5050213;28;20432;-65
2022/06/08 09:52:46;;;;;;;6.38;3.30;;;32.20;99.90;;;;;;5050378;28;20446;-66
2022/06/08 09:55:59;;;;;;;7.82;3.00;;;32.00;99.90;;;;;;5051258;28;20381;-66
2022/06/08 09:58:43;;;;;;;10.52;4.30;;;31.80;99.90;;;;;;5048754;28;20397;-65
2022/06/08 10:01:39;;;;;;;8.88;4.30;;;31.10;99.90;;;;;;5051322;28;20451;-65
2022/06/08 10:04:13;;;;;;;6.97;3.80;;;31.00;99.90;;;;;;5050649;28;20447;-66
2022/06/08 10:06:55;;;;;;;7.82;4.45;;;29.60;99.90;;;;;;5049996;28;20373;-65
2022/06/08 10:09:31;;;;;;;8.50;4.30;;;28.70;99.90;;;;;;5050320;28;20416;-58
2022/06/08 10:12:02;;;;;;;6.80;4.30;;;28.00;99.90;;;;;;5050972;28;20477;-66
2022/06/08 10:14:52;;;;;;;7.00;4.50;;;27.20;99.90;;;;;;5050042;28;20396;-66
2022/06/08 10:17:23;;;;;;;8.20;4.40;;;26.80;99.90;;;;;;5050686;28;20401;-66
2022/06/08 10:19:58;;;;;;;7.30;4.38;;;26.20;99.90;;;;;;5050569;28;20790;-66
2022/06/08 10:22:27;;;;;;;9.20;4.78;;;26.50;99.90;;;;;;5049595;28;20402;-66
2022/06/08 10:25:02;;;;;;;7.75;4.65;;;27.10;1.00;;;;;;5032530;28;20882;-66
2022/06/08 10:27:54;;;;;;;8.20;4.20;;;28.40;1.00;;;;;;5049566;28;20745;-63
2022/06/08 10:30:32;;;;;;;7.15;3.90;;;29.00;1.00;;;;;;5050177;28;20755;-58
2022/06/08 10:33:05;;;;;;;6.00;3.83;;;28.80;1.00;;;;;;5050488;28;20443;-66
2022/06/08 10:35:35;;;;;;;6.40;4.20;;;28.90;1.00;;;;;;5031926;28;20863;-66
2022/06/08 10:38:02;;;;;;;7.85;4.55;;;28.60;99.90;;;;;;5049937;28;20420;-66
2022/06/08 10:40:44;;;;;;;8.73;4.88;;;27.60;99.90;;;;;;5049430;28;20374;-67
2022/06/08 10:43:24;;;;;;;8.18;4.88;;;27.70;99.90;;;;;;5050091;28;20385;-67
2022/06/08 10:45:56;;;;;;;6.60;4.60;;;27.50;99.90;;;;;;5050458;28;20384;-65
2022/06/08 10:48:34;;;;;;;8.23;4.97;;;27.50;99.90;;;;;;5049712;28;20392;-58
2022/06/08 10:51:12;;;;;;;8.00;4.70;;;27.30;99.90;;;;;;5050493;28;20405;-67
2022/06/08 10:56:26;;;;;;;7.45;4.40;;;27.40;99.90;;;;;;5049284;28;20385;-66
2022/06/08 10:59:07;;;;;;;6.80;4.23;;;27.10;99.90;;;;;;5050021;28;20382;-66
2022/06/08 11:01:47;;;;;;;7.00;4.30;;;26.80;99.90;;;;;;5049388;28;20851;-67
2022/06/08 11:04:34;;;;;;;6.80;3.85;;;26.60;99.90;;;;;;5049767;28;20431;-66
2022/06/08 11:07:05;;;;;;;6.30;4.30;;;26.20;99.90;;;;;;5018569;28;20384;-66
2022/06/08 11:09:33;;;;;;;7.00;3.95;;;26.40;99.90;;;;;;5049096;28;20413;-66
2022/06/08 11:12:05;;;;;;;7.10;4.05;;;26.20;99.90;;;;;;5049530;28;20401;-67
2022/06/08 11:14:51;;;;;;;9.33;4.13;;;26.20;99.90;;;;;;5048977;28;20890;-66
2022/06/08 11:17:57;;;;;;;8.80;3.93;;;26.00;99.90;;;;;;5049615;28;20413;-65
2022/06/08 11:20:35;;;;;;;6.70;4.10;;;26.00;99.90;;;;;;5007195;28;20401;-58
2022/06/08 11:23:12;;;;;;;8.10;5.90;;;26.70;99.90;;;;;;5035050;28;20443;-67
2022/06/08 11:26:12;;;;;;;6.07;3.38;;;27.40;99.90;;;;;;5048790;28;20627;-65
2022/06/08 11:28:44;;;;;;;8.13;4.10;;;27.20;99.90;;;;;;5049029;28;20377;-65
2022/06/08 11:31:32;;;;;;;6.57;3.83;;;27.40;99.90;;;;;;5049610;28;20881;-66
2022/06/08 11:34:17;;;;;;;9.40;4.10;;;26.60;99.90;;;;;;5049509;28;20378;-66
2022/06/08 11:37:13;;;;;;;6.80;3.90;;;27.20;99.90;;;;;;5048559;28;21004;-66
2022/06/08 11:39:59;;;;;;;6.38;3.92;;;27.40;99.90;;;;;;5048501;28;20917;-67
2022/06/08 11:42:28;;;;;;;8.40;4.40;;;27.10;99.90;;;;;;5048388;28;20373;-59
2022/06/08 11:45:18;;;;;;;8.60;4.15;;;26.90;99.90;;;;;;5049325;28;20385;-67
2022/06/08 11:48:00;;;;;;;7.27;4.20;;;26.60;99.90;;;;;;5043008;28;20496;-67
2022/06/08 11:50:31;;;;;;;8.93;4.60;;;26.20;99.90;;;;;;5048646;28;20755;-66
2022/06/08 11:53:14;;;;;;;6.93;4.50;;;26.10;99.90;;;;;;5049420;28;20398;-67
2022/06/08 11:56:21;;;;;;;6.45;4.10;;;26.00;99.90;;;;;;5048512;28;20381;-67
2022/06/08 11:59:00;;;;;;;7.60;4.53;;;26.10;99.90;;;;;;5048618;28;20378;-66
2022/06/08 12:01:31;;;;;;;7.10;4.30;;;26.20;99.90;;;;;;5048328;28;20716;-66
2022/06/08 12:04:05;;;;;;;9.77;5.07;;;26.20;99.90;;;;;;5049107;28;20393;-63
2022/06/08 12:06:37;;;;;;;7.90;4.43;;;26.30;99.90;;;;;;5048644;28;20382;-66
2022/06/08 12:09:20;;;;;;;6.77;4.30;;;26.10;99.90;;;;;;5048885;28;20405;-65
2022/06/08 12:11:53;;;;;;;7.68;4.40;;;26.00;99.90;;;;;;5048406;28;20389;-60
2022/06/08 12:14:25;;;;;;;8.73;4.47;;;25.80;99.90;;;;;;5048950;28;20377;-67
2022/06/08 12:17:08;;;;;;;6.72;4.20;;;25.80;99.90;;;;;;5049032;28;20443;-66
2022/06/08 12:20:09;;;;;;;9.63;4.27;;;25.40;99.90;;;;;;5048100;28;20390;-65
2022/06/08 12:22:36;;;;;;;5.85;3.70;;;25.60;99.90;;;;;;5034436;28;20472;-66
2022/06/08 12:25:21;;;;;;;7.57;4.00;;;25.90;99.90;;;;;;5031158;28;20826;-66
2022/06/08 12:28:15;;;;;;;7.40;3.90;;;26.80;99.90;;;;;;5048457;28;20527;-66
2022/06/08 12:30:43;;;;;;;9.35;4.18;;;27.10;99.90;;;;;;5048007;28;20507;-66
2022/06/08 12:33:18;;;;;;;6.80;3.90;;;27.30;1.00;;;;;;5049091;28;20389;-67
2022/06/08 12:36:08;;;;;;;8.90;4.00;;;27.30;99.90;;;;;;5051412;28;20385;-66
2022/06/08 12:38:57;;;;;;;7.50;3.90;;;27.30;1.00;;;;;;5051765;28;20378;-66
2022/06/08 12:41:39;;;;;;;7.40;3.90;;;27.30;99.90;;;;;;5052333;28;20432;-59
2022/06/08 12:44:13;;;;;;;8.57;4.20;;;27.00;99.90;;;;;;5052555;28;20427;-67
2022/06/08 12:46:53;;;;;;;6.60;3.80;;;27.10;99.90;;;;;;5051897;28;20370;-66
2022/06/08 12:49:41;;;;;;;6.20;3.70;;;27.20;99.90;;;;;;5052364;28;20497;-65
2022/06/08 12:52:26;;;;;;;6.40;4.00;;;27.40;99.90;;;;;;5052341;28;20405;-66
2022/06/08 12:54:52;;;;;;;6.82;4.30;;;27.70;1.00;;;;;;5052411;28;20385;-63
2022/06/08 12:57:20;;;;;;;7.63;3.90;;;28.10;1.00;;;;;;5052386;28;20412;-66
2022/06/08 12:59:49;;;;;;;5.72;4.03;;;28.20;1.00;;;;;;5051160;28;20527;-66
2022/06/08 13:02:18;;;;;;;7.35;4.47;;;28.10;99.90;;;;;;5052208;28;21056;-66
2022/06/08 13:04:45;;;;;;;7.93;4.30;;;27.80;99.90;;;;;;5051487;28;20377;-66
2022/06/08 13:07:17;;;;;;;13.30;4.50;;;27.90;99.90;;;;;;5051920;28;20385;-68
2022/06/08 13:09:44;;;;;;;6.40;4.80;;;28.00;99.90;;;;;;5051045;28;20393;-66
2022/06/08 13:12:13;;;;;;;11.63;4.40;;;27.90;99.90;;;;;;5033608;28;20402;-66
2022/06/08 13:14:41;;;;;;;7.82;4.10;;;27.60;99.90;;;;;;5050649;28;20882;-66
2022/06/08 13:17:06;;;;;;;6.20;4.50;;;27.20;99.90;;;;;;5051886;28;20898;-66
2022/06/08 13:19:33;;;;;;;10.45;4.80;;;27.20;99.90;;;;;;5051107;28;20409;-66
2022/06/08 13:21:58;;;;;;;6.55;4.25;;;27.30;99.90;;;;;;5051709;28;20392;-66
2022/06/08 13:24:24;;;;;;;7.10;4.80;;;27.40;99.90;;;;;;5050890;28;20833;-60
2022/06/08 13:26:50;;;;;;;7.03;4.67;;;27.30;99.90;;;;;;5051262;28;20378;-66
2022/06/08 13:29:17;;;;;;;6.60;4.40;;;27.00;99.90;;;;;;5051668;28;20409;-67